sensor_id;sensor_type;location;lat;lon;timestamp;pressure;altitude;pressure_sealevel;temperature;humidity
19208;BME280;9737;59.466;18.036;2023-02-20T00:01:22;95069.41;;;-3.45;62.22
19208;BME280;9737;59.466;18.036;2023-02-20T00:03:50;95041.78;;;-3.54;62.37
19208;BME280;9737;59.466;18.036;2023-02-20T00:06:18;95052.50;;;-3.49;62.40
19208;BME280;9737;59.466;18.036;2023-02-20T00:08:48;95013.69;;;-3.66;62.42
19208;BME280;9737;59.466;18.036;2023-02-20T00:11:15;95068.78;;;-3.47;62.34
19208;BME280;9737;59.466;18.036;2023-02-20T00:13:45;95031.56;;;-3.55;62.42
19208;BME280;9737;59.466;18.036;2023-02-20T00:16:13;95027.19;;;-3.55;62.36
19208;BME280;9737;59.466;18.036;2023-02-20T00:18:41;95034.81;;;-3.53;62.34
19208;BME280;9737;59.466;18.036;2023-02-20T00:21:09;95002.81;;;-3.62;62.25
19208;BME280;9737;59.466;18.036;2023-02-20T00:23:36;94953.16;;;-3.75;62.36
19208;BME280;9737;59.466;18.036;2023-02-20T00:26:09;95017.91;;;-3.57;62.36
19208;BME280;9737;59.466;18.036;2023-02-20T00:28:38;95033.19;;;-3.54;62.24
19208;BME280;9737;59.466;18.036;2023-02-20T00:31:07;95054.13;;;-3.48;62.30
19208;BME280;9737;59.466;18.036;2023-02-20T00:33:35;95077.56;;;-3.39;62.46
19208;BME280;9737;59.466;18.036;2023-02-20T00:36:04;95087.94;;;-3.39;62.26
19208;BME280;9737;59.466;18.036;2023-02-20T00:38:32;95074.31;;;-3.41;62.21
19208;BME280;9737;59.466;18.036;2023-02-20T00:40:59;95084.69;;;-3.41;62.48
19208;BME280;9737;59.466;18.036;2023-02-20T00:43:29;95051.53;;;-3.48;62.34
19208;BME280;9737;59.466;18.036;2023-02-20T00:45:57;95014.66;;;-3.59;62.33
19208;BME280;9737;59.466;18.036;2023-02-20T00:48:25;95028.97;;;-3.55;62.38
19208;BME280;9737;59.466;18.036;2023-02-20T00:50:53;95014.50;;;-3.58;62.39
19208;BME280;9737;59.466;18.036;2023-02-20T00:53:21;94986.91;;;-3.67;62.32
19208;BME280;9737;59.466;18.036;2023-02-20T00:55:48;94994.38;;;-3.64;62.22
19208;BME280;9737;59.466;18.036;2023-02-20T00:58:16;94969.38;;;-3.73;62.28
19208;BME280;9737;59.466;18.036;2023-02-20T01:00:46;94934.63;;;-3.80;62.27
19208;BME280;9737;59.466;18.036;2023-02-20T01:03:13;94902.50;;;-3.87;62.29
19208;BME280;9737;59.466;18.036;2023-02-20T01:05:41;94869.09;;;-3.98;62.14
19208;BME280;9737;59.466;18.036;2023-02-20T01:08:09;94887.56;;;-3.93;62.28
19208;BME280;9737;59.466;18.036;2023-02-20T01:10:37;94849.63;;;-4.02;62.20
19208;BME280;9737;59.466;18.036;2023-02-20T01:13:05;94816.84;;;-4.12;62.21
19208;BME280;9737;59.466;18.036;2023-02-20T01:15:33;94795.09;;;-4.19;62.22
19208;BME280;9737;59.466;18.036;2023-02-20T01:18:02;94763.66;;;-4.24;62.11
19208;BME280;9737;59.466;18.036;2023-02-20T01:20:31;94752.16;;;-4.29;62.13
19208;BME280;9737;59.466;18.036;2023-02-20T01:22:59;94767.88;;;-4.23;62.35
19208;BME280;9737;59.466;18.036;2023-02-20T01:25:27;94754.09;;;-4.31;62.35
19208;BME280;9737;59.466;18.036;2023-02-20T01:27:55;94751.03;;;-4.27;62.26
19208;BME280;9737;59.466;18.036;2023-02-20T01:30:23;94823.47;;;-4.09;62.27
19208;BME280;9737;59.466;18.036;2023-02-20T01:32:51;94847.03;;;-4.02;62.12
19208;BME280;9737;59.466;18.036;2023-02-20T01:35:20;94864.88;;;-3.99;62.21
19208;BME280;9737;59.466;18.036;2023-02-20T01:37:48;94842.81;;;-4.03;62.22
19208;BME280;9737;59.466;18.036;2023-02-20T01:40:18;94845.41;;;-4.03;62.28
19208;BME280;9737;59.466;18.036;2023-02-20T01:42:47;94899.56;;;-3.92;62.35
19208;BME280;9737;59.466;18.036;2023-02-20T01:45:27;94903.31;;;-3.87;62.36
19208;BME280;9737;59.466;18.036;2023-02-20T01:47:56;94927.00;;;-3.82;62.53
19208;BME280;9737;59.466;18.036;2023-02-20T01:50:28;94917.75;;;-3.84;62.42
19208;BME280;9737;59.466;18.036;2023-02-20T01:53:01;94906.56;;;-3.85;62.23
19208;BME280;9737;59.466;18.036;2023-02-20T01:55:34;94967.44;;;-3.71;62.04
19208;BME280;9737;59.466;18.036;2023-02-20T01:58:07;94948.78;;;-3.75;62.45
19208;BME280;9737;59.466;18.036;2023-02-20T02:00:37;94973.28;;;-3.69;62.21
19208;BME280;9737;59.466;18.036;2023-02-20T02:03:07;94975.56;;;-3.66;62.39
19208;BME280;9737;59.466;18.036;2023-02-20T02:05:42;94963.22;;;-3.72;62.37
19208;BME280;9737;59.466;18.036;2023-02-20T02:08:12;94956.25;;;-3.71;62.32
19208;BME280;9737;59.466;18.036;2023-02-20T02:10:46;94957.06;;;-3.71;62.25
19208;BME280;9737;59.466;18.036;2023-02-20T02:13:16;94964.84;;;-3.71;62.40
19208;BME280;9737;59.466;18.036;2023-02-20T02:15:44;94997.78;;;-3.63;62.46
19208;BME280;9737;59.466;18.036;2023-02-20T02:18:22;95046.34;;;-3.48;62.45
19208;BME280;9737;59.466;18.036;2023-02-20T02:27:20;95135.84;;;-3.26;62.60
19208;BME280;9737;59.466;18.036;2023-02-20T02:30:17;95120.59;;;-3.29;62.56
19208;BME280;9737;59.466;18.036;2023-02-20T02:33:05;95114.91;;;-3.32;62.61
19208;BME280;9737;59.466;18.036;2023-02-20T02:36:12;95156.81;;;-3.19;62.68
19208;BME280;9737;59.466;18.036;2023-02-20T02:38:45;95145.63;;;-3.20;62.45
19208;BME280;9737;59.466;18.036;2023-02-20T02:41:20;95170.19;;;-3.14;62.61
19208;BME280;9737;59.466;18.036;2023-02-20T02:43:53;95179.44;;;-3.12;62.65
19208;BME280;9737;59.466;18.036;2023-02-20T02:46:27;95177.81;;;-3.13;62.67
19208;BME280;9737;59.466;18.036;2023-02-20T02:48:59;95190.50;;;-3.09;62.50
19208;BME280;9737;59.466;18.036;2023-02-20T02:51:34;95193.75;;;-3.07;62.82
19208;BME280;9737;59.466;18.036;2023-02-20T02:54:05;95208.88;;;-3.03;62.57
19208;BME280;9737;59.466;18.036;2023-02-20T02:56:34;95191.16;;;-3.07;62.68
19208;BME280;9737;59.466;18.036;2023-02-20T02:59:02;95201.38;;;-3.06;62.48
19208;BME280;9737;59.466;18.036;2023-02-20T03:01:33;95195.84;;;-3.11;62.59
19208;BME280;9737;59.466;18.036;2023-02-20T03:04:04;95208.06;;;-3.03;62.65
19208;BME280;9737;59.466;18.036;2023-02-20T03:06:37;95220.88;;;-3.02;62.61
19208;BME280;9737;59.466;18.036;2023-02-20T03:09:08;95220.88;;;-3.02;62.90
19208;BME280;9737;59.466;18.036;2023-02-20T03:11:39;95217.31;;;-3.01;62.89
19208;BME280;9737;59.466;18.036;2023-02-20T03:14:09;95182.53;;;-3.16;62.40
19208;BME280;9737;59.466;18.036;2023-02-20T03:17:02;95189.38;;;-3.07;62.68
19208;BME280;9737;59.466;18.036;2023-02-20T03:19:35;95173.44;;;-3.12;62.73
19208;BME280;9737;59.466;18.036;2023-02-20T03:22:10;95225.78;;;-2.99;62.64
19208;BME280;9737;59.466;18.036;2023-02-20T03:24:41;95229.03;;;-2.97;62.75
19208;BME280;9737;59.466;18.036;2023-02-20T03:27:29;95258.63;;;-2.90;62.70
19208;BME280;9737;59.466;18.036;2023-02-20T03:30:07;95285.63;;;-2.83;62.59
19208;BME280;9737;59.466;18.036;2023-02-20T03:32:39;95281.09;;;-2.81;62.65
19208;BME280;9737;59.466;18.036;2023-02-20T03:35:29;95299.13;;;-2.79;62.71
19208;BME280;9737;59.466;18.036;2023-02-20T03:38:20;95307.59;;;-2.77;62.67
19208;BME280;9737;59.466;18.036;2023-02-20T03:41:09;95318.19;;;-2.70;62.62
19208;BME280;9737;59.466;18.036;2023-02-20T03:43:59;95323.69;;;-2.73;62.86
19208;BME280;9737;59.466;18.036;2023-02-20T03:46:31;95347.28;;;-2.67;62.95
19208;BME280;9737;59.466;18.036;2023-02-20T03:49:05;95365.69;;;-2.60;62.70
19208;BME280;9737;59.466;18.036;2023-02-20T03:51:34;95371.56;;;-2.58;62.93
19208;BME280;9737;59.466;18.036;2023-02-20T03:54:20;95359.81;;;-2.62;62.88
19208;BME280;9737;59.466;18.036;2023-02-20T03:56:52;95380.69;;;-2.54;62.86
19208;BME280;9737;59.466;18.036;2023-02-20T03:59:23;95387.50;;;-2.53;62.91
19208;BME280;9737;59.466;18.036;2023-02-20T04:01:55;95376.09;;;-2.60;62.77
19208;BME280;9737;59.466;18.036;2023-02-20T04:04:28;95422.34;;;-2.46;62.90
19208;BME280;9737;59.466;18.036;2023-02-20T04:06:59;95433.75;;;-2.39;62.91
19208;BME280;9737;59.466;18.036;2023-02-20T04:09:32;95425.25;;;-2.49;62.93
19208;BME280;9737;59.466;18.036;2023-02-20T04:12:07;95431.44;;;-2.42;62.95
19208;BME280;9737;59.466;18.036;2023-02-20T04:14:38;95440.72;;;-2.39;62.77
19208;BME280;9737;59.466;18.036;2023-02-20T04:17:10;95466.13;;;-2.33;62.96
19208;BME280;9737;59.466;18.036;2023-02-20T04:19:41;95468.88;;;-2.35;63.00
19208;BME280;9737;59.466;18.036;2023-02-20T04:22:13;95474.47;;;-2.30;62.99
19208;BME280;9737;59.466;18.036;2023-02-20T04:24:47;95499.03;;;-2.24;62.75
19208;BME280;9737;59.466;18.036;2023-02-20T04:27:17;95507.34;;;-2.21;63.13
19208;BME280;9737;59.466;18.036;2023-02-20T04:29:45;95498.88;;;-2.23;62.96
19208;BME280;9737;59.466;18.036;2023-02-20T04:32:13;95511.75;;;-2.21;62.99
19208;BME280;9737;59.466;18.036;2023-02-20T04:34:41;95536.03;;;-2.12;62.67
19208;BME280;9737;59.466;18.036;2023-02-20T04:37:11;95528.53;;;-2.15;63.12
19208;BME280;9737;59.466;18.036;2023-02-20T04:39:39;95527.56;;;-2.14;63.22
19208;BME280;9737;59.466;18.036;2023-02-20T04:42:09;95509.31;;;-2.23;62.88
19208;BME280;9737;59.466;18.036;2023-02-20T04:44:37;95498.38;;;-2.26;63.33
19208;BME280;9737;59.466;18.036;2023-02-20T04:47:07;95522.66;;;-2.17;62.99
19208;BME280;9737;59.466;18.036;2023-02-20T04:49:37;95544.66;;;-2.12;63.07
19208;BME280;9737;59.466;18.036;2023-02-20T04:52:05;95534.41;;;-2.13;62.94
19208;BME280;9737;59.466;18.036;2023-02-20T04:54:33;95546.28;;;-2.11;63.10
19208;BME280;9737;59.466;18.036;2023-02-20T04:57:01;95542.19;;;-2.13;63.06
19208;BME280;9737;59.466;18.036;2023-02-20T04:59:30;95590.44;;;-2.01;63.30
19208;BME280;9737;59.466;18.036;2023-02-20T05:01:58;95620.75;;;-1.92;63.31
19208;BME280;9737;59.466;18.036;2023-02-20T05:04:27;95639.34;;;-1.87;63.25
19208;BME280;9737;59.466;18.036;2023-02-20T05:06:56;95637.19;;;-1.92;63.41
19208;BME280;9737;59.466;18.036;2023-02-20T05:09:24;95665.56;;;-1.80;63.26
19208;BME280;9737;59.466;18.036;2023-02-20T05:11:52;95667.22;;;-1.79;63.01
19208;BME280;9737;59.466;18.036;2023-02-20T05:14:20;95707.84;;;-1.69;63.30
19208;BME280;9737;59.466;18.036;2023-02-20T05:16:50;95718.63;;;-1.64;63.24
19208;BME280;9737;59.466;18.036;2023-02-20T05:19:18;95770.47;;;-1.52;63.05
19208;BME280;9737;59.466;18.036;2023-02-20T05:21:46;95766.53;;;-1.57;63.24
19208;BME280;9737;59.466;18.036;2023-02-20T05:24:32;95768.53;;;-1.50;63.12
19208;BME280;9737;59.466;18.036;2023-02-20T05:26:59;95790.53;;;-1.45;63.54
19208;BME280;9737;59.466;18.036;2023-02-20T05:29:27;95828.88;;;-1.37;63.46
19208;BME280;9737;59.466;18.036;2023-02-20T05:31:57;95849.78;;;-1.29;63.33
19208;BME280;9737;59.466;18.036;2023-02-20T05:34:25;95854.03;;;-1.28;63.17
19208;BME280;9737;59.466;18.036;2023-02-20T05:36:53;95912.66;;;-1.14;63.28
19208;BME280;9737;59.466;18.036;2023-02-20T05:39:22;95922.63;;;-1.10;63.21
19208;BME280;9737;59.466;18.036;2023-02-20T05:41:50;95944.81;;;-1.06;63.27
19208;BME280;9737;59.466;18.036;2023-02-20T05:44:18;95926.88;;;-1.09;63.54
19208;BME280;9737;59.466;18.036;2023-02-20T05:46:46;95908.25;;;-1.14;63.18
19208;BME280;9737;59.466;18.036;2023-02-20T05:49:16;95857.63;;;-1.29;63.21
19208;BME280;9737;59.466;18.036;2023-02-20T05:51:45;95817.94;;;-1.41;63.37
19208;BME280;9737;59.466;18.036;2023-02-20T05:54:12;95803.44;;;-1.43;63.50
19208;BME280;9737;59.466;18.036;2023-02-20T05:56:40;95782.88;;;-1.46;63.45
19208;BME280;9737;59.466;18.036;2023-02-20T05:59:08;95752.84;;;-1.59;63.35
19208;BME280;9737;59.466;18.036;2023-02-20T06:01:37;95748.44;;;-1.58;63.37
19208;BME280;9737;59.466;18.036;2023-02-20T06:04:05;95722.19;;;-1.65;63.61
19208;BME280;9737;59.466;18.036;2023-02-20T06:06:35;95695.13;;;-1.72;63.64
19208;BME280;9737;59.466;18.036;2023-02-20T06:09:04;95684.97;;;-1.75;63.30
19208;BME280;9737;59.466;18.036;2023-02-20T06:11:34;95647.00;;;-1.85;63.19
19208;BME280;9737;59.466;18.036;2023-02-20T06:14:02;95640.97;;;-1.86;63.37
19208;BME280;9737;59.466;18.036;2023-02-20T06:16:30;95652.88;;;-1.83;63.64
19208;BME280;9737;59.466;18.036;2023-02-20T06:18:59;95632.50;;;-1.88;63.42
19208;BME280;9737;59.466;18.036;2023-02-20T06:21:27;95655.31;;;-1.82;63.15
19208;BME280;9737;59.466;18.036;2023-02-20T06:23:56;95650.28;;;-1.83;63.19
19208;BME280;9737;59.466;18.036;2023-02-20T06:26:24;95669.66;;;-1.78;63.64
19208;BME280;9737;59.466;18.036;2023-02-20T06:28:52;95664.75;;;-1.81;63.21
19208;BME280;9737;59.466;18.036;2023-02-20T06:31:21;95665.56;;;-1.80;63.18
19208;BME280;9737;59.466;18.036;2023-02-20T06:33:49;95670.47;;;-1.77;63.58
19208;BME280;9737;59.466;18.036;2023-02-20T06:36:19;95639.03;;;-1.84;63.45
19208;BME280;9737;59.466;18.036;2023-02-20T06:38:48;95616.31;;;-2.00;63.12
19208;BME280;9737;59.466;18.036;2023-02-20T06:41:17;95651.91;;;-1.82;63.48
19208;BME280;9737;59.466;18.036;2023-02-20T06:43:45;95660.53;;;-1.82;63.56
19208;BME280;9737;59.466;18.036;2023-02-20T06:46:14;95643.22;;;-1.91;63.43
19208;BME280;9737;59.466;18.036;2023-02-20T06:48:43;95657.78;;;-1.80;63.69
19208;BME280;9737;59.466;18.036;2023-02-20T06:51:12;95645.53;;;-1.88;63.44
19208;BME280;9737;59.466;18.036;2023-02-20T06:53:40;95682.38;;;-1.75;63.73
19208;BME280;9737;59.466;18.036;2023-02-20T06:56:08;95696.59;;;-1.69;63.36
19208;BME280;9737;59.466;18.036;2023-02-20T06:58:39;95698.41;;;-1.70;63.65
19208;BME280;9737;59.466;18.036;2023-02-20T07:01:07;95679.94;;;-1.76;63.15
19208;BME280;9737;59.466;18.036;2023-02-20T07:03:36;95701.31;;;-1.73;63.44
19208;BME280;9737;59.466;18.036;2023-02-20T07:06:04;95747.47;;;-1.57;63.39
19208;BME280;9737;59.466;18.036;2023-02-20T07:08:32;95740.78;;;-1.60;63.25
19208;BME280;9737;59.466;18.036;2023-02-20T07:11:00;95748.13;;;-1.55;63.68
19208;BME280;9737;59.466;18.036;2023-02-20T07:13:28;95778.47;;;-1.46;63.41
19208;BME280;9737;59.466;18.036;2023-02-20T07:15:58;95766.53;;;-1.57;63.27
19208;BME280;9737;59.466;18.036;2023-02-20T07:18:26;95794.56;;;-1.50;63.50
19208;BME280;9737;59.466;18.036;2023-02-20T07:20:55;95839.38;;;-1.29;63.56
19208;BME280;9737;59.466;18.036;2023-02-20T07:23:23;95820.41;;;-1.39;63.28
19208;BME280;9737;59.466;18.036;2023-02-20T07:25:51;95837.38;;;-1.35;63.83
19208;BME280;9737;59.466;18.036;2023-02-20T07:28:19;95884.25;;;-1.17;63.61
19208;BME280;9737;59.466;18.036;2023-02-20T07:30:47;95887.69;;;-1.17;63.46
19208;BME280;9737;59.466;18.036;2023-02-20T07:33:18;95933.06;;;-1.10;63.49
19208;BME280;9737;59.466;18.036;2023-02-20T07:35:46;95998.75;;;-0.88;63.49
19208;BME280;9737;59.466;18.036;2023-02-20T07:38:14;96004.94;;;-0.89;63.95
19208;BME280;9737;59.466;18.036;2023-02-20T07:40:42;96010.97;;;-0.89;63.83
19208;BME280;9737;59.466;18.036;2023-02-20T07:43:12;96032.44;;;-0.77;63.73
19208;BME280;9737;59.466;18.036;2023-02-20T07:45:40;96077.53;;;-0.67;63.92
19208;BME280;9737;59.466;18.036;2023-02-20T07:48:08;96096.44;;;-0.65;63.85
19208;BME280;9737;59.466;18.036;2023-02-20T07:50:38;96113.31;;;-0.59;64.15
19208;BME280;9737;59.466;18.036;2023-02-20T07:53:05;96124.00;;;-0.53;64.35
19208;BME280;9737;59.466;18.036;2023-02-20T07:55:33;96148.81;;;-0.49;63.81
19208;BME280;9737;59.466;18.036;2023-02-20T07:58:01;96210.63;;;-0.32;64.26
19208;BME280;9737;59.466;18.036;2023-02-20T08:00:29;96248.94;;;-0.22;64.07
19208;BME280;9737;59.466;18.036;2023-02-20T08:02:57;96265.66;;;-0.15;64.00
19208;BME280;9737;59.466;18.036;2023-02-20T08:05:26;96291.22;;;-0.19;64.29
19208;BME280;9737;59.466;18.036;2023-02-20T08:08:10;96320.78;;;-0.01;64.36
19208;BME280;9737;59.466;18.036;2023-02-20T08:10:38;96334.97;;;-0.03;64.43
19208;BME280;9737;59.466;18.036;2023-02-20T08:13:06;96342.53;;;0.00;64.51
19208;BME280;9737;59.466;18.036;2023-02-20T08:15:34;96394.97;;;0.16;64.30
19208;BME280;9737;59.466;18.036;2023-02-20T08:18:02;96427.88;;;0.27;64.11
19208;BME280;9737;59.466;18.036;2023-02-20T08:20:41;96488.34;;;0.42;64.09
19208;BME280;9737;59.466;18.036;2023-02-20T08:23:16;96522.94;;;0.53;64.34
19208;BME280;9737;59.466;18.036;2023-02-20T08:25:45;96546.91;;;0.58;64.38
19208;BME280;9737;59.466;18.036;2023-02-20T08:28:13;96564.75;;;0.63;64.49
19208;BME280;9737;59.466;18.036;2023-02-20T08:30:41;96616.72;;;0.76;64.51
19208;BME280;9737;59.466;18.036;2023-02-20T08:33:09;96628.00;;;0.76;64.33
19208;BME280;9737;59.466;18.036;2023-02-20T08:35:37;96694.81;;;0.98;64.51
19208;BME280;9737;59.466;18.036;2023-02-20T08:38:06;96682.19;;;0.93;64.60
19208;BME280;9737;59.466;18.036;2023-02-20T08:40:36;96674.63;;;0.90;64.26
19208;BME280;9737;59.466;18.036;2023-02-20T08:43:04;96692.66;;;0.93;64.69
19208;BME280;9737;59.466;18.036;2023-02-20T08:45:32;96667.06;;;0.87;64.42
19208;BME280;9737;59.466;18.036;2023-02-20T08:48:00;96702.81;;;0.97;64.59
19208;BME280;9737;59.466;18.036;2023-02-20T08:50:28;96710.25;;;1.01;64.79
19208;BME280;9737;59.466;18.036;2023-02-20T08:52:56;96749.06;;;1.06;64.84
19208;BME280;9737;59.466;18.036;2023-02-20T08:55:25;96790.78;;;1.17;64.79
19208;BME280;9737;59.466;18.036;2023-02-20T08:57:55;96796.41;;;1.22;65.09
19208;BME280;9737;59.466;18.036;2023-02-20T09:00:23;96839.75;;;1.34;64.73
19208;BME280;9737;59.466;18.036;2023-02-20T09:02:51;96897.72;;;1.49;65.13
19208;BME280;9737;59.466;18.036;2023-02-20T09:05:19;96938.63;;;1.60;65.09
19208;BME280;9737;59.466;18.036;2023-02-20T09:07:47;96903.78;;;1.49;64.89
19208;BME280;9737;59.466;18.036;2023-02-20T09:10:16;96844.84;;;1.36;65.40
19208;BME280;9737;59.466;18.036;2023-02-20T09:12:44;96800.81;;;1.21;65.03
19208;BME280;9737;59.466;18.036;2023-02-20T09:15:14;96785.38;;;1.18;64.76
19208;BME280;9737;59.466;18.036;2023-02-20T09:17:44;96769.13;;;1.15;64.92
19208;BME280;9737;59.466;18.036;2023-02-20T09:20:15;96759.91;;;1.11;65.09
19208;BME280;9737;59.466;18.036;2023-02-20T09:22:43;96733.09;;;0.99;65.08
19208;BME280;9737;59.466;18.036;2023-02-20T09:25:12;96716.28;;;1.02;65.38
19208;BME280;9737;59.466;18.036;2023-02-20T09:27:41;96686.06;;;0.89;65.15
19208;BME280;9737;59.466;18.036;2023-02-20T09:30:10;96683.31;;;0.91;65.22
19208;BME280;9737;59.466;18.036;2023-02-20T09:32:44;96706.13;;;0.99;64.98
19208;BME280;9737;59.466;18.036;2023-02-20T09:35:15;96679.88;;;0.81;65.54
19208;BME280;9737;59.466;18.036;2023-02-20T09:37:45;96707.09;;;0.98;65.46
19208;BME280;9737;59.466;18.036;2023-02-20T09:40:13;96699.81;;;0.91;65.45
19208;BME280;9737;59.466;18.036;2023-02-20T09:42:48;96691.28;;;0.89;65.13
19208;BME280;9737;59.466;18.036;2023-02-20T09:45:21;96694.59;;;0.91;65.24
19208;BME280;9737;59.466;18.036;2023-02-20T09:48:14;96726.38;;;0.97;65.56
19208;BME280;9737;59.466;18.036;2023-02-20T09:50:48;96711.22;;;1.00;65.53
19208;BME280;9737;59.466;18.036;2023-02-20T09:53:22;96733.34;;;1.06;65.36
19208;BME280;9737;59.466;18.036;2023-02-20T09:59:23;96728.94;;;1.06;65.28
19208;BME280;9737;59.466;18.036;2023-02-20T10:01:55;96742.84;;;1.07;65.74
19208;BME280;9737;59.466;18.036;2023-02-20T10:04:30;96755.66;;;1.10;65.66
19208;BME280;9737;59.466;18.036;2023-02-20T10:07:08;96778.09;;;1.12;65.55
19208;BME280;9737;59.466;18.036;2023-02-20T10:09:42;96844.31;;;1.32;65.91
19208;BME280;9737;59.466;18.036;2023-02-20T10:12:17;96823.25;;;1.24;65.86
19208;BME280;9737;59.466;18.036;2023-02-20T10:15:00;96939.59;;;1.59;65.83
19208;BME280;9737;59.466;18.036;2023-02-20T10:17:37;96989.19;;;1.70;66.04
19208;BME280;9737;59.466;18.036;2023-02-20T10:20:12;96994.44;;;1.70;66.05
19208;BME280;9737;59.466;18.036;2023-02-20T10:22:49;96987.00;;;1.65;66.31
19208;BME280;9737;59.466;18.036;2023-02-20T10:25:24;97013.47;;;1.72;65.61
19208;BME280;9737;59.466;18.036;2023-02-20T10:28:02;97032.91;;;1.69;66.09
19208;BME280;9737;59.466;18.036;2023-02-20T10:30:35;97092.72;;;1.93;65.94
19208;BME280;9737;59.466;18.036;2023-02-20T10:33:15;97108.56;;;2.01;66.34
19208;BME280;9737;59.466;18.036;2023-02-20T10:35:50;97154.66;;;2.13;66.26
19208;BME280;9737;59.466;18.036;2023-02-20T10:38:24;97145.00;;;2.04;66.01
19208;BME280;9737;59.466;18.036;2023-02-20T10:40:58;97124.84;;;1.95;66.45
19208;BME280;9737;59.466;18.036;2023-02-20T10:43:31;97117.97;;;2.04;66.48
19208;BME280;9737;59.466;18.036;2023-02-20T10:46:07;97103.34;;;2.01;66.36
19208;BME280;9737;59.466;18.036;2023-02-20T10:48:40;97131.50;;;2.09;66.50
19208;BME280;9737;59.466;18.036;2023-02-20T10:51:13;97147.50;;;2.06;66.63
19208;BME280;9737;59.466;18.036;2023-02-20T10:53:46;97181.13;;;2.20;66.44
19208;BME280;9737;59.466;18.036;2023-02-20T10:56:21;97217.00;;;2.29;67.10
19208;BME280;9737;59.466;18.036;2023-02-20T10:58:56;97228.06;;;2.33;66.54
19208;BME280;9737;59.466;18.036;2023-02-20T11:01:28;97200.59;;;2.17;67.12
19208;BME280;9737;59.466;18.036;2023-02-20T11:03:58;97194.38;;;2.18;66.67
19208;BME280;9737;59.466;18.036;2023-02-20T11:06:36;97203.63;;;2.13;66.74
19208;BME280;9737;59.466;18.036;2023-02-20T11:09:05;97212.03;;;2.26;66.90
19208;BME280;9737;59.466;18.036;2023-02-20T11:11:38;97226.66;;;2.29;66.67
19208;BME280;9737;59.466;18.036;2023-02-20T11:14:13;97207.63;;;2.17;66.94
19208;BME280;9737;59.466;18.036;2023-02-20T11:16:46;97262.25;;;2.31;66.89
19208;BME280;9737;59.466;18.036;2023-02-20T11:19:19;97276.91;;;2.43;67.04
19208;BME280;9737;59.466;18.036;2023-02-20T11:21:50;97363.34;;;2.64;67.11
19208;BME280;9737;59.466;18.036;2023-02-20T11:24:25;97454.53;;;2.91;67.23
19208;BME280;9737;59.466;18.036;2023-02-20T11:27:02;97529.16;;;3.08;67.00
19208;BME280;9737;59.466;18.036;2023-02-20T11:29:37;97511.75;;;3.07;67.21
19208;BME280;9737;59.466;18.036;2023-02-20T11:32:29;97576.03;;;3.22;67.33
19208;BME280;9737;59.466;18.036;2023-02-20T11:35:11;97557.50;;;3.14;67.70
19208;BME280;9737;59.466;18.036;2023-02-20T11:37:42;97549.63;;;3.14;67.49
19208;BME280;9737;59.466;18.036;2023-02-20T11:40:24;97566.78;;;3.18;67.60
19208;BME280;9737;59.466;18.036;2023-02-20T11:42:53;97583.09;;;3.22;67.63
19208;BME280;9737;59.466;18.036;2023-02-20T11:45:23;97582.53;;;3.18;67.87
19208;BME280;9737;59.466;18.036;2023-02-20T11:48:09;97595.00;;;3.26;67.66
19208;BME280;9737;59.466;18.036;2023-02-20T11:50:40;97626.50;;;3.35;67.75
19208;BME280;9737;59.466;18.036;2023-02-20T11:53:17;97599.97;;;3.19;67.93
19208;BME280;9737;59.466;18.036;2023-02-20T11:55:46;97631.63;;;3.37;67.59
19208;BME280;9737;59.466;18.036;2023-02-20T11:58:26;97643.94;;;3.36;67.86
19208;BME280;9737;59.466;18.036;2023-02-20T12:00:55;97643.81;;;3.38;67.80
19208;BME280;9737;59.466;18.036;2023-02-20T12:03:25;97718.94;;;3.60;67.91
19208;BME280;9737;59.466;18.036;2023-02-20T12:05:54;97769.03;;;3.68;67.86
19208;BME280;9737;59.466;18.036;2023-02-20T12:11:28;97731.41;;;3.58;67.88
19208;BME280;9737;59.466;18.036;2023-02-20T12:13:57;97700.41;;;3.52;68.39
19208;BME280;9737;59.466;18.036;2023-02-20T12:16:31;97673.81;;;3.35;68.64
19208;BME280;9737;59.466;18.036;2023-02-20T12:19:09;97666.34;;;3.40;68.21
19208;BME280;9737;59.466;18.036;2023-02-20T12:21:49;97659.69;;;3.36;68.46
19208;BME280;9737;59.466;18.036;2023-02-20T12:24:37;97643.25;;;3.34;68.25
19208;BME280;9737;59.466;18.036;2023-02-20T12:27:23;97654.72;;;3.33;68.50
19208;BME280;9737;59.466;18.036;2023-02-20T12:29:59;97709.94;;;3.53;68.41
19208;BME280;9737;59.466;18.036;2023-02-20T12:32:36;97732.09;;;3.60;68.46
19208;BME280;9737;59.466;18.036;2023-02-20T12:35:22;97795.50;;;3.76;68.62
19208;BME280;9737;59.466;18.036;2023-02-20T12:38:03;97797.16;;;3.77;68.37
19208;BME280;9737;59.466;18.036;2023-02-20T12:41:00;97909.75;;;4.02;69.07
19208;BME280;9737;59.466;18.036;2023-02-20T12:43:39;98112.16;;;4.55;68.58
19208;BME280;9737;59.466;18.036;2023-02-20T12:46:15;98129.34;;;4.59;68.86
19208;BME280;9737;59.466;18.036;2023-02-20T12:48:56;98146.59;;;4.63;68.92
19208;BME280;9737;59.466;18.036;2023-02-20T12:51:36;98199.88;;;4.77;69.07
19208;BME280;9737;59.466;18.036;2023-02-20T12:54:15;98249.56;;;4.91;69.20
19208;BME280;9737;59.466;18.036;2023-02-20T12:56:56;98217.59;;;4.75;68.79
19208;BME280;9737;59.466;18.036;2023-02-20T12:59:34;98219.69;;;4.81;69.46
19208;BME280;9737;59.466;18.036;2023-02-20T13:02:12;98169.88;;;4.68;69.34
19208;BME280;9737;59.466;18.036;2023-02-20T13:04:44;98079.72;;;4.45;69.54
19208;BME280;9737;59.466;18.036;2023-02-20T13:07:17;97919.00;;;3.97;68.95
19208;BME280;9737;59.466;18.036;2023-02-20T13:09:56;97824.16;;;3.79;68.88
19208;BME280;9737;59.466;18.036;2023-02-20T13:12:26;97738.31;;;3.59;68.93
19208;BME280;9737;59.466;18.036;2023-02-20T13:15:05;97705.09;;;3.48;69.31
19208;BME280;9737;59.466;18.036;2023-02-20T13:17:40;97716.16;;;3.52;69.54
19208;BME280;9737;59.466;18.036;2023-02-20T13:20:17;97661.50;;;3.36;69.15
19208;BME280;9737;59.466;18.036;2023-02-20T13:23:00;97695.66;;;3.46;69.14
19208;BME280;9737;59.466;18.036;2023-02-20T13:25:38;97642.41;;;3.34;68.94
19208;BME280;9737;59.466;18.036;2023-02-20T13:28:33;97640.88;;;3.31;69.14
19208;BME280;9737;59.466;18.036;2023-02-20T13:31:13;97639.22;;;3.30;69.46
19208;BME280;9737;59.466;18.036;2023-02-20T13:33:43;97568.53;;;3.08;69.47
19208;BME280;9737;59.466;18.036;2023-02-20T13:36:40;97593.88;;;3.19;69.37
19208;BME280;9737;59.466;18.036;2023-02-20T13:39:37;97592.09;;;3.19;69.22
19208;BME280;9737;59.466;18.036;2023-02-20T13:42:37;97559.69;;;3.09;69.53
19208;BME280;9737;59.466;18.036;2023-02-20T13:45:37;97560.66;;;3.08;69.45